Yocana, Arkansas
Current Conditions -  °F | °C
As of 12:55 PM on Friday 21 Nov 2014 (Local Time) from KMEZ Reporting Station
Overcast Overcast  
Wind Chill: 52°   Ceiling: 200
Heat Index: 52°   Visibility: 1.7mi
Dew Point: 52°   Wind: 5mph
Humidity: 100%   Direction: 80°E
Pressure: 30.18"   Gusts: NA
Location:  34.592°N, 94.1901°W
Report Text: KMEZ 211855Z AUTO 08004KT 1 3/4SM BKN002 OVC006 11/11 A3018 RMK AO2
Loading
Personal Weather Stations






























Interactive Weather Map New forecast layout! Learn more

10-Day Weather Forecast

Advertisements
Track Severe Weather on mobile